This is the latest recevied weather packets stored in our database for station/object NK7I. If no packets are shown the sender has not sent any weather packets the latest 1 day(s).
| Time | Temp. | Humidity | Pressure | Rain* | Wind** | Luminosity | Snow |
|---|---|---|---|---|---|---|---|
| 1777997183 | 14.44° C | 45% | 1014.6 hPa | 0 mm | 1.34 m/s, 17° | 543 W/m² | - |
| 1777996883 | 14.44° C | 50% | 1014.7 hPa | 0 mm | 0.89 m/s, 8° | 519 W/m² | - |
| 1777996583 | 14.44° C | 54% | 1014.7 hPa | 0 mm | 0.45 m/s, 2° | 543 W/m² | - |
| 1777996283 | 13.89° C | 54% | 1014.8 hPa | 0 mm | 0.45 m/s, 2° | 577 W/m² | - |
| 1777995983 | 13.89° C | 53% | 1014.8 hPa | 0 mm | 0.45 m/s, 2° | 601 W/m² | - |
| 1777995683 | 13.33° C | 57% | 1014.7 hPa | 0 mm | 0.89 m/s, 2° | 605 W/m² | - |
| 1777995383 | 13.33° C | 52% | 1014.8 hPa | 0 mm | 0.89 m/s, 0° | 612 W/m² | - |
| 1777995083 | 13.33° C | 51% | 1014.8 hPa | 0 mm | 1.34 m/s, 356° | 615 W/m² | - |
| 1777994784 | 13.33° C | 54% | 1014.8 hPa | 0 mm | 0.45 m/s, 345° | 575 W/m² | - |
| 1777994483 | 12.78° C | 58% | 1014.8 hPa | 0 mm | 0 m/s | 571 W/m² | - |
| 1777994183 | 12.22° C | 55% | 1014.9 hPa | 0 mm | 0.45 m/s, 343° | 603 W/m² | - |
| 1777993883 | 12.22° C | 58% | 1014.9 hPa | 0 mm | 0.89 m/s, 341° | 601 W/m² | - |
| 1777993583 | 11.67° C | 56% | 1014.7 hPa | 0 mm | 0.89 m/s, 339° | 577 W/m² | - |
| 1777993284 | 11.11° C | 56% | 1014.8 hPa | 0 mm | 0.89 m/s, 333° | 557 W/m² | - |
| 1777992983 | 10.56° C | 61% | 1014.7 hPa | 0 mm | 0.89 m/s, 330° | 534 W/m² | - |
| 1777992683 | 10° C | 65% | 1014.7 hPa | 0 mm | 0.45 m/s, 329° | 504 W/m² | - |
| 1777992383 | 10° C | 66% | 1014.6 hPa | 0 mm | 0 m/s | 425 W/m² | - |
| 1777992083 | 9.44° C | 67% | 1014.6 hPa | 0 mm | 0 m/s | 241 W/m² | - |
| 1777991783 | 9.44° C | 64% | 1014.5 hPa | 0 mm | 0.45 m/s, 329° | 165 W/m² | - |
| 1777991483 | 9.44° C | 66% | 1014.5 hPa | 0 mm | 0.45 m/s, 328° | 114 W/m² | - |
| 1777991183 | 8.89° C | 69% | 1014.5 hPa | 0 mm | 0.45 m/s, 325° | 98 W/m² | - |
| 1777990883 | 8.33° C | 69% | 1014.5 hPa | 0 mm | 0 m/s | 90 W/m² | - |
| 1777990583 | 8.33° C | 70% | 1014.5 hPa | 0 mm | 0 m/s | 246 W/m² | - |
| 1777990284 | 8.33° C | 72% | 1014.4 hPa | 0 mm | 0 m/s | 97 W/m² | - |
| 1777989983 | 8.33° C | 72% | 1014.4 hPa | 0 mm | 0 m/s | 44 W/m² | - |
* Rain latest hour (hover to see other rain measurements)
** Current wind speed in m/s (hover to see current wind gust speed)